sensor_id;sensor_type;location;lat;lon;timestamp;P1;durP1;ratioP1;P2;durP2;ratioP2
20511;SDS011;10414;52.074;5.126;2024-02-15T00:00:58;17.20;;;4.50;;
20511;SDS011;10414;52.074;5.126;2024-02-15T00:03:27;12.13;;;4.90;;
20511;SDS011;10414;52.074;5.126;2024-02-15T00:05:54;12.15;;;4.35;;
20511;SDS011;10414;52.074;5.126;2024-02-15T00:08:21;13.55;;;4.68;;
20511;SDS011;10414;52.074;5.126;2024-02-15T00:10:49;13.02;;;5.15;;
20511;SDS011;10414;52.074;5.126;2024-02-15T00:13:17;14.75;;;4.80;;
20511;SDS011;10414;52.074;5.126;2024-02-15T00:15:44;15.70;;;4.20;;
20511;SDS011;10414;52.074;5.126;2024-02-15T00:18:14;13.63;;;5.00;;
20511;SDS011;10414;52.074;5.126;2024-02-15T00:20:42;14.88;;;5.18;;
20511;SDS011;10414;52.074;5.126;2024-02-15T00:23:10;13.15;;;4.13;;
20511;SDS011;10414;52.074;5.126;2024-02-15T00:25:37;11.25;;;4.22;;
20511;SDS011;10414;52.074;5.126;2024-02-15T00:28:05;13.15;;;4.40;;
20511;SDS011;10414;52.074;5.126;2024-02-15T00:30:32;7.60;;;4.03;;
20511;SDS011;10414;52.074;5.126;2024-02-15T00:32:59;11.10;;;4.13;;
20511;SDS011;10414;52.074;5.126;2024-02-15T00:35:27;8.88;;;3.72;;
20511;SDS011;10414;52.074;5.126;2024-02-15T00:37:56;12.55;;;4.30;;
20511;SDS011;10414;52.074;5.126;2024-02-15T00:40:23;17.20;;;4.18;;
20511;SDS011;10414;52.074;5.126;2024-02-15T00:42:49;10.13;;;3.80;;
20511;SDS011;10414;52.074;5.126;2024-02-15T00:45:16;9.63;;;3.90;;
20511;SDS011;10414;52.074;5.126;2024-02-15T00:47:43;12.93;;;4.13;;
20511;SDS011;10414;52.074;5.126;2024-02-15T00:50:10;12.82;;;4.40;;
20511;SDS011;10414;52.074;5.126;2024-02-15T00:52:37;12.27;;;3.80;;
20511;SDS011;10414;52.074;5.126;2024-02-15T00:55:05;12.30;;;4.05;;
20511;SDS011;10414;52.074;5.126;2024-02-15T00:57:32;12.52;;;4.82;;
20511;SDS011;10414;52.074;5.126;2024-02-15T00:59:59;13.27;;;4.43;;
20511;SDS011;10414;52.074;5.126;2024-02-15T01:02:28;11.27;;;4.75;;
20511;SDS011;10414;52.074;5.126;2024-02-15T01:04:56;9.18;;;3.97;;
20511;SDS011;10414;52.074;5.126;2024-02-15T01:07:24;11.23;;;4.57;;
20511;SDS011;10414;52.074;5.126;2024-02-15T01:09:52;12.63;;;4.68;;
20511;SDS011;10414;52.074;5.126;2024-02-15T01:12:21;10.27;;;4.10;;
20511;SDS011;10414;52.074;5.126;2024-02-15T01:14:48;13.98;;;4.90;;
20511;SDS011;10414;52.074;5.126;2024-02-15T01:17:14;11.70;;;5.70;;
20511;SDS011;10414;52.074;5.126;2024-02-15T01:19:42;15.95;;;5.80;;
20511;SDS011;10414;52.074;5.126;2024-02-15T01:22:09;11.15;;;5.45;;
20511;SDS011;10414;52.074;5.126;2024-02-15T01:24:35;12.15;;;5.05;;
20511;SDS011;10414;52.074;5.126;2024-02-15T01:27:02;14.43;;;5.88;;
20511;SDS011;10414;52.074;5.126;2024-02-15T01:29:33;19.20;;;6.03;;
20511;SDS011;10414;52.074;5.126;2024-02-15T01:32:01;16.08;;;6.38;;
20511;SDS011;10414;52.074;5.126;2024-02-15T01:34:28;12.52;;;6.90;;
20511;SDS011;10414;52.074;5.126;2024-02-15T01:36:55;9.82;;;5.72;;
20511;SDS011;10414;52.074;5.126;2024-02-15T01:39:22;15.82;;;7.53;;
20511;SDS011;10414;52.074;5.126;2024-02-15T01:41:49;19.48;;;7.68;;
20511;SDS011;10414;52.074;5.126;2024-02-15T01:44:16;19.27;;;8.23;;
20511;SDS011;10414;52.074;5.126;2024-02-15T01:46:46;17.63;;;7.28;;
20511;SDS011;10414;52.074;5.126;2024-02-15T01:49:14;18.65;;;7.53;;
20511;SDS011;10414;52.074;5.126;2024-02-15T01:51:41;17.95;;;7.22;;
20511;SDS011;10414;52.074;5.126;2024-02-15T01:54:09;20.52;;;8.00;;
20511;SDS011;10414;52.074;5.126;2024-02-15T01:56:36;23.70;;;9.90;;
20511;SDS011;10414;52.074;5.126;2024-02-15T01:59:04;17.33;;;8.30;;
20511;SDS011;10414;52.074;5.126;2024-02-15T02:01:32;18.17;;;8.57;;
20511;SDS011;10414;52.074;5.126;2024-02-15T02:04:01;18.40;;;8.38;;
20511;SDS011;10414;52.074;5.126;2024-02-15T02:06:28;15.20;;;7.95;;
20511;SDS011;10414;52.074;5.126;2024-02-15T02:08:55;18.55;;;8.00;;
20511;SDS011;10414;52.074;5.126;2024-02-15T02:11:22;19.40;;;8.27;;
20511;SDS011;10414;52.074;5.126;2024-02-15T02:13:50;20.85;;;9.20;;
20511;SDS011;10414;52.074;5.126;2024-02-15T02:16:23;19.75;;;9.60;;
20511;SDS011;10414;52.074;5.126;2024-02-15T02:18:51;22.60;;;9.32;;
20511;SDS011;10414;52.074;5.126;2024-02-15T02:21:19;20.73;;;8.27;;
20511;SDS011;10414;52.074;5.126;2024-02-15T02:23:46;22.55;;;8.80;;
20511;SDS011;10414;52.074;5.126;2024-02-15T02:26:19;19.23;;;8.02;;
20511;SDS011;10414;52.074;5.126;2024-02-15T02:28:47;17.98;;;8.35;;
20511;SDS011;10414;52.074;5.126;2024-02-15T02:31:14;19.08;;;8.60;;
20511;SDS011;10414;52.074;5.126;2024-02-15T02:33:41;17.73;;;8.43;;
20511;SDS011;10414;52.074;5.126;2024-02-15T02:36:10;18.52;;;7.30;;
20511;SDS011;10414;52.074;5.126;2024-02-15T02:38:37;19.92;;;8.07;;
20511;SDS011;10414;52.074;5.126;2024-02-15T02:41:03;19.30;;;7.85;;
20511;SDS011;10414;52.074;5.126;2024-02-15T02:43:31;18.88;;;7.38;;
20511;SDS011;10414;52.074;5.126;2024-02-15T02:45:58;18.88;;;7.50;;
20511;SDS011;10414;52.074;5.126;2024-02-15T02:48:25;18.60;;;7.30;;
20511;SDS011;10414;52.074;5.126;2024-02-15T02:50:52;16.77;;;7.80;;
20511;SDS011;10414;52.074;5.126;2024-02-15T02:53:19;18.08;;;7.32;;
20511;SDS011;10414;52.074;5.126;2024-02-15T02:55:46;16.15;;;7.45;;
20511;SDS011;10414;52.074;5.126;2024-02-15T02:58:12;20.10;;;7.20;;
20511;SDS011;10414;52.074;5.126;2024-02-15T03:00:41;24.20;;;7.57;;
20511;SDS011;10414;52.074;5.126;2024-02-15T03:03:07;16.33;;;7.18;;
20511;SDS011;10414;52.074;5.126;2024-02-15T03:05:34;18.55;;;6.97;;
20511;SDS011;10414;52.074;5.126;2024-02-15T03:08:01;21.13;;;6.90;;
20511;SDS011;10414;52.074;5.126;2024-02-15T03:10:28;18.25;;;6.60;;
20511;SDS011;10414;52.074;5.126;2024-02-15T03:12:55;14.32;;;6.72;;
20511;SDS011;10414;52.074;5.126;2024-02-15T03:15:22;11.82;;;6.15;;
20511;SDS011;10414;52.074;5.126;2024-02-15T03:17:51;19.35;;;6.20;;
20511;SDS011;10414;52.074;5.126;2024-02-15T03:20:17;12.55;;;6.40;;
20511;SDS011;10414;52.074;5.126;2024-02-15T03:22:52;13.27;;;6.63;;
20511;SDS011;10414;52.074;5.126;2024-02-15T03:27:48;14.23;;;6.15;;
20511;SDS011;10414;52.074;5.126;2024-02-15T03:30:16;19.55;;;5.97;;
20511;SDS011;10414;52.074;5.126;2024-02-15T03:32:44;12.32;;;5.75;;
20511;SDS011;10414;52.074;5.126;2024-02-15T03:35:12;15.05;;;5.20;;
20511;SDS011;10414;52.074;5.126;2024-02-15T03:37:39;18.92;;;6.00;;
20511;SDS011;10414;52.074;5.126;2024-02-15T03:40:07;15.80;;;5.80;;
20511;SDS011;10414;52.074;5.126;2024-02-15T03:42:34;17.95;;;5.88;;
20511;SDS011;10414;52.074;5.126;2024-02-15T03:45:02;13.00;;;5.45;;
20511;SDS011;10414;52.074;5.126;2024-02-15T03:47:31;13.02;;;5.38;;
20511;SDS011;10414;52.074;5.126;2024-02-15T03:49:58;14.77;;;5.40;;
20511;SDS011;10414;52.074;5.126;2024-02-15T03:52:26;15.63;;;5.68;;
20511;SDS011;10414;52.074;5.126;2024-02-15T03:54:55;14.85;;;5.32;;
20511;SDS011;10414;52.074;5.126;2024-02-15T03:57:22;13.23;;;5.07;;
20511;SDS011;10414;52.074;5.126;2024-02-15T03:59:49;13.48;;;5.50;;
20511;SDS011;10414;52.074;5.126;2024-02-15T04:02:17;19.98;;;5.68;;
20511;SDS011;10414;52.074;5.126;2024-02-15T04:04:44;14.80;;;5.68;;
20511;SDS011;10414;52.074;5.126;2024-02-15T04:07:12;12.48;;;4.95;;
20511;SDS011;10414;52.074;5.126;2024-02-15T04:09:40;13.15;;;5.13;;
20511;SDS011;10414;52.074;5.126;2024-02-15T04:12:07;17.23;;;5.47;;
20511;SDS011;10414;52.074;5.126;2024-02-15T04:14:34;12.80;;;5.38;;
20511;SDS011;10414;52.074;5.126;2024-02-15T04:17:03;13.88;;;5.60;;
20511;SDS011;10414;52.074;5.126;2024-02-15T04:19:30;16.60;;;5.65;;
20511;SDS011;10414;52.074;5.126;2024-02-15T04:21:57;10.25;;;5.05;;
20511;SDS011;10414;52.074;5.126;2024-02-15T04:24:26;21.25;;;5.43;;
20511;SDS011;10414;52.074;5.126;2024-02-15T04:26:54;11.07;;;5.32;;
20511;SDS011;10414;52.074;5.126;2024-02-15T04:29:21;17.02;;;5.10;;
20511;SDS011;10414;52.074;5.126;2024-02-15T04:31:48;13.38;;;5.47;;
20511;SDS011;10414;52.074;5.126;2024-02-15T04:34:15;15.50;;;5.40;;
20511;SDS011;10414;52.074;5.126;2024-02-15T04:36:43;19.83;;;5.90;;
20511;SDS011;10414;52.074;5.126;2024-02-15T04:39:14;14.95;;;5.88;;
20511;SDS011;10414;52.074;5.126;2024-02-15T04:41:49;17.83;;;6.10;;
20511;SDS011;10414;52.074;5.126;2024-02-15T04:44:18;15.18;;;6.38;;
20511;SDS011;10414;52.074;5.126;2024-02-15T04:46:45;12.52;;;6.03;;
20511;SDS011;10414;52.074;5.126;2024-02-15T04:49:12;14.68;;;6.35;;
20511;SDS011;10414;52.074;5.126;2024-02-15T04:51:39;15.48;;;6.20;;
20511;SDS011;10414;52.074;5.126;2024-02-15T04:54:06;19.23;;;6.78;;
20511;SDS011;10414;52.074;5.126;2024-02-15T04:56:33;16.23;;;6.57;;
20511;SDS011;10414;52.074;5.126;2024-02-15T04:59:01;18.33;;;6.40;;
20511;SDS011;10414;52.074;5.126;2024-02-15T05:01:29;15.57;;;7.03;;
20511;SDS011;10414;52.074;5.126;2024-02-15T05:03:58;18.73;;;7.53;;
20511;SDS011;10414;52.074;5.126;2024-02-15T05:06:25;18.13;;;7.32;;
20511;SDS011;10414;52.074;5.126;2024-02-15T05:08:55;20.50;;;8.32;;
20511;SDS011;10414;52.074;5.126;2024-02-15T05:11:22;20.38;;;8.10;;
20511;SDS011;10414;52.074;5.126;2024-02-15T05:13:49;16.55;;;7.45;;
20511;SDS011;10414;52.074;5.126;2024-02-15T05:16:17;21.08;;;7.82;;
20511;SDS011;10414;52.074;5.126;2024-02-15T05:18:46;21.30;;;8.07;;
20511;SDS011;10414;52.074;5.126;2024-02-15T05:21:13;18.70;;;8.27;;
20511;SDS011;10414;52.074;5.126;2024-02-15T05:23:40;19.52;;;8.70;;
20511;SDS011;10414;52.074;5.126;2024-02-15T05:26:09;21.40;;;8.13;;
20511;SDS011;10414;52.074;5.126;2024-02-15T05:28:37;23.45;;;8.93;;
20511;SDS011;10414;52.074;5.126;2024-02-15T05:31:11;19.70;;;8.50;;
20511;SDS011;10414;52.074;5.126;2024-02-15T05:33:39;16.83;;;7.70;;
20511;SDS011;10414;52.074;5.126;2024-02-15T05:36:10;20.33;;;8.73;;
20511;SDS011;10414;52.074;5.126;2024-02-15T05:38:38;22.10;;;9.00;;
20511;SDS011;10414;52.074;5.126;2024-02-15T05:41:05;19.58;;;8.07;;
20511;SDS011;10414;52.074;5.126;2024-02-15T05:43:32;19.20;;;8.10;;
20511;SDS011;10414;52.074;5.126;2024-02-15T05:46:01;25.52;;;9.02;;
20511;SDS011;10414;52.074;5.126;2024-02-15T05:48:28;19.95;;;8.70;;
20511;SDS011;10414;52.074;5.126;2024-02-15T05:50:55;17.98;;;8.05;;
20511;SDS011;10414;52.074;5.126;2024-02-15T05:53:23;17.48;;;8.48;;
20511;SDS011;10414;52.074;5.126;2024-02-15T05:55:50;20.90;;;8.43;;
20511;SDS011;10414;52.074;5.126;2024-02-15T05:58:17;24.17;;;8.95;;
20511;SDS011;10414;52.074;5.126;2024-02-15T06:00:44;17.40;;;8.93;;
20511;SDS011;10414;52.074;5.126;2024-02-15T06:05:41;19.88;;;8.75;;
20511;SDS011;10414;52.074;5.126;2024-02-15T06:08:08;21.20;;;9.82;;
20511;SDS011;10414;52.074;5.126;2024-02-15T06:10:38;18.75;;;8.52;;
20511;SDS011;10414;52.074;5.126;2024-02-15T06:13:05;21.40;;;10.10;;
20511;SDS011;10414;52.074;5.126;2024-02-15T06:15:34;21.90;;;10.00;;
20511;SDS011;10414;52.074;5.126;2024-02-15T06:18:01;17.33;;;8.88;;
20511;SDS011;10414;52.074;5.126;2024-02-15T06:20:29;22.08;;;9.15;;
20511;SDS011;10414;52.074;5.126;2024-02-15T06:22:56;22.38;;;9.85;;
20511;SDS011;10414;52.074;5.126;2024-02-15T06:25:23;21.42;;;9.95;;
20511;SDS011;10414;52.074;5.126;2024-02-15T06:27:52;21.38;;;9.55;;
20511;SDS011;10414;52.074;5.126;2024-02-15T06:30:23;18.27;;;9.23;;
20511;SDS011;10414;52.074;5.126;2024-02-15T06:33:08;19.17;;;9.18;;
20511;SDS011;10414;52.074;5.126;2024-02-15T06:35:52;21.15;;;9.55;;
20511;SDS011;10414;52.074;5.126;2024-02-15T06:38:36;19.30;;;8.90;;
20511;SDS011;10414;52.074;5.126;2024-02-15T06:41:20;17.38;;;9.45;;
20511;SDS011;10414;52.074;5.126;2024-02-15T06:43:48;17.55;;;9.18;;
20511;SDS011;10414;52.074;5.126;2024-02-15T06:46:14;18.50;;;8.63;;
20511;SDS011;10414;52.074;5.126;2024-02-15T06:48:44;17.02;;;8.07;;
20511;SDS011;10414;52.074;5.126;2024-02-15T06:51:12;17.70;;;8.88;;
20511;SDS011;10414;52.074;5.126;2024-02-15T06:53:40;19.10;;;8.15;;
20511;SDS011;10414;52.074;5.126;2024-02-15T06:56:08;17.88;;;9.13;;
20511;SDS011;10414;52.074;5.126;2024-02-15T06:58:35;19.85;;;8.65;;
20511;SDS011;10414;52.074;5.126;2024-02-15T07:01:03;17.02;;;9.07;;
20511;SDS011;10414;52.074;5.126;2024-02-15T07:03:30;15.38;;;7.57;;
20511;SDS011;10414;52.074;5.126;2024-02-15T07:05:58;17.13;;;8.32;;
20511;SDS011;10414;52.074;5.126;2024-02-15T07:08:25;17.77;;;7.53;;
20511;SDS011;10414;52.074;5.126;2024-02-15T07:10:52;15.85;;;7.63;;
20511;SDS011;10414;52.074;5.126;2024-02-15T07:13:18;16.02;;;7.60;;
20511;SDS011;10414;52.074;5.126;2024-02-15T07:15:45;15.48;;;7.18;;
20511;SDS011;10414;52.074;5.126;2024-02-15T07:18:15;14.48;;;7.25;;
20511;SDS011;10414;52.074;5.126;2024-02-15T07:20:45;12.70;;;6.88;;
20511;SDS011;10414;52.074;5.126;2024-02-15T07:23:12;14.10;;;6.97;;
20511;SDS011;10414;52.074;5.126;2024-02-15T07:25:39;12.65;;;6.97;;
20511;SDS011;10414;52.074;5.126;2024-02-15T07:28:07;13.88;;;6.70;;
20511;SDS011;10414;52.074;5.126;2024-02-15T07:30:35;15.50;;;6.13;;
20511;SDS011;10414;52.074;5.126;2024-02-15T07:33:02;14.32;;;7.13;;
20511;SDS011;10414;52.074;5.126;2024-02-15T07:35:33;10.57;;;6.15;;
20511;SDS011;10414;52.074;5.126;2024-02-15T07:38:00;13.70;;;6.53;;
20511;SDS011;10414;52.074;5.126;2024-02-15T07:40:27;12.45;;;5.95;;
20511;SDS011;10414;52.074;5.126;2024-02-15T07:42:56;12.32;;;6.45;;
20511;SDS011;10414;52.074;5.126;2024-02-15T07:45:23;14.32;;;6.25;;
20511;SDS011;10414;52.074;5.126;2024-02-15T07:47:50;13.52;;;6.63;;
20511;SDS011;10414;52.074;5.126;2024-02-15T07:50:17;13.95;;;6.10;;
20511;SDS011;10414;52.074;5.126;2024-02-15T07:52:49;13.70;;;6.82;;
20511;SDS011;10414;52.074;5.126;2024-02-15T07:55:16;11.10;;;5.88;;
20511;SDS011;10414;52.074;5.126;2024-02-15T07:57:43;12.98;;;6.30;;
20511;SDS011;10414;52.074;5.126;2024-02-15T08:00:11;15.23;;;7.15;;
20511;SDS011;10414;52.074;5.126;2024-02-15T08:02:41;12.77;;;7.28;;
20511;SDS011;10414;52.074;5.126;2024-02-15T08:05:09;13.63;;;6.55;;
20511;SDS011;10414;52.074;5.126;2024-02-15T08:07:37;14.88;;;6.75;;
20511;SDS011;10414;52.074;5.126;2024-02-15T08:10:06;13.95;;;7.63;;
20511;SDS011;10414;52.074;5.126;2024-02-15T08:12:38;15.90;;;7.70;;
20511;SDS011;10414;52.074;5.126;2024-02-15T08:15:05;15.82;;;7.15;;
20511;SDS011;10414;52.074;5.126;2024-02-15T08:17:37;14.32;;;6.97;;
20511;SDS011;10414;52.074;5.126;2024-02-15T08:20:05;14.02;;;6.45;;
20511;SDS011;10414;52.074;5.126;2024-02-15T08:22:33;13.70;;;7.07;;
20511;SDS011;10414;52.074;5.126;2024-02-15T08:25:00;16.30;;;6.97;;
20511;SDS011;10414;52.074;5.126;2024-02-15T08:27:31;12.40;;;5.70;;
20511;SDS011;10414;52.074;5.126;2024-02-15T08:29:59;12.27;;;6.18;;
20511;SDS011;10414;52.074;5.126;2024-02-15T08:32:28;11.60;;;5.43;;
20511;SDS011;10414;52.074;5.126;2024-02-15T08:34:55;11.82;;;5.80;;
20511;SDS011;10414;52.074;5.126;2024-02-15T08:37:22;10.27;;;5.72;;
20511;SDS011;10414;52.074;5.126;2024-02-15T08:39:49;12.32;;;5.13;;
20511;SDS011;10414;52.074;5.126;2024-02-15T08:42:17;10.95;;;4.97;;
20511;SDS011;10414;52.074;5.126;2024-02-15T08:44:48;13.70;;;5.72;;
20511;SDS011;10414;52.074;5.126;2024-02-15T08:47:15;11.07;;;5.05;;
20511;SDS011;10414;52.074;5.126;2024-02-15T08:49:42;12.88;;;4.90;;
20511;SDS011;10414;52.074;5.126;2024-02-15T08:52:09;13.45;;;5.20;;
20511;SDS011;10414;52.074;5.126;2024-02-15T08:54:35;9.20;;;4.80;;
20511;SDS011;10414;52.074;5.126;2024-02-15T08:57:03;11.70;;;4.50;;
20511;SDS011;10414;52.074;5.126;2024-02-15T08:59:31;11.73;;;4.72;;
20511;SDS011;10414;52.074;5.126;2024-02-15T09:01:59;13.18;;;4.45;;
20511;SDS011;10414;52.074;5.126;2024-02-15T09:04:26;15.23;;;5.18;;
20511;SDS011;10414;52.074;5.126;2024-02-15T09:06:53;11.60;;;4.97;;
20511;SDS011;10414;52.074;5.126;2024-02-15T09:09:20;12.52;;;5.15;;
20511;SDS011;10414;52.074;5.126;2024-02-15T09:11:46;14.60;;;5.72;;
20511;SDS011;10414;52.074;5.126;2024-02-15T09:14:13;12.82;;;5.70;;
20511;SDS011;10414;52.074;5.126;2024-02-15T09:16:40;13.85;;;5.97;;
20511;SDS011;10414;52.074;5.126;2024-02-15T09:19:08;13.52;;;5.68;;
20511;SDS011;10414;52.074;5.126;2024-02-15T09:21:35;14.75;;;5.82;;
20511;SDS011;10414;52.074;5.126;2024-02-15T09:24:02;12.00;;;5.22;;
20511;SDS011;10414;52.074;5.126;2024-02-15T09:26:29;13.65;;;5.65;;
20511;SDS011;10414;52.074;5.126;2024-02-15T09:28:56;11.20;;;5.03;;
20511;SDS011;10414;52.074;5.126;2024-02-15T09:31:23;14.90;;;5.22;;
20511;SDS011;10414;52.074;5.126;2024-02-15T09:33:50;14.77;;;4.82;;
20511;SDS011;10414;52.074;5.126;2024-02-15T09:36:18;10.05;;;4.70;;
20511;SDS011;10414;52.074;5.126;2024-02-15T09:38:45;11.90;;;4.88;;
20511;SDS011;10414;52.074;5.126;2024-02-15T09:41:13;14.95;;;4.28;;
20511;SDS011;10414;52.074;5.126;2024-02-15T09:43:40;11.63;;;4.63;;
20511;SDS011;10414;52.074;5.126;2024-02-15T09:46:07;12.32;;;4.55;;
20511;SDS011;10414;52.074;5.126;2024-02-15T09:48:34;13.60;;;4.47;;
20511;SDS011;10414;52.074;5.126;2024-02-15T09:51:02;12.35;;;4.07;;
20511;SDS011;10414;52.074;5.126;2024-02-15T09:53:32;11.75;;;4.18;;
20511;SDS011;10414;52.074;5.126;2024-02-15T09:56:00;11.48;;;4.43;;
20511;SDS011;10414;52.074;5.126;2024-02-15T09:58:29;13.15;;;5.75;;
20511;SDS011;10414;52.074;5.126;2024-02-15T10:00:59;11.65;;;4.38;;
20511;SDS011;10414;52.074;5.126;2024-02-15T10:05:56;11.38;;;3.90;;
20511;SDS011;10414;52.074;5.126;2024-02-15T10:08:23;10.23;;;3.90;;
20511;SDS011;10414;52.074;5.126;2024-02-15T10:13:34;11.10;;;3.78;;
20511;SDS011;10414;52.074;5.126;2024-02-15T10:16:13;7.90;;;3.60;;
20511;SDS011;10414;52.074;5.126;2024-02-15T10:18:41;8.73;;;3.58;;
20511;SDS011;10414;52.074;5.126;2024-02-15T10:21:07;9.48;;;3.78;;
20511;SDS011;10414;52.074;5.126;2024-02-15T10:23:36;13.75;;;4.20;;
20511;SDS011;10414;52.074;5.126;2024-02-15T10:28:59;9.07;;;3.30;;
20511;SDS011;10414;52.074;5.126;2024-02-15T10:31:32;8.05;;;3.20;;
20511;SDS011;10414;52.074;5.126;2024-02-15T10:34:01;10.15;;;3.75;;
20511;SDS011;10414;52.074;5.126;2024-02-15T10:36:30;8.15;;;3.30;;
20511;SDS011;10414;52.074;5.126;2024-02-15T10:39:09;9.43;;;3.75;;
20511;SDS011;10414;52.074;5.126;2024-02-15T10:41:43;7.50;;;3.17;;
20511;SDS011;10414;52.074;5.126;2024-02-15T10:44:11;9.73;;;3.65;;
20511;SDS011;10414;52.074;5.126;2024-02-15T10:46:43;11.52;;;3.97;;
20511;SDS011;10414;52.074;5.126;2024-02-15T10:49:12;9.50;;;3.95;;
20511;SDS011;10414;52.074;5.126;2024-02-15T10:51:41;11.80;;;3.95;;
20511;SDS011;10414;52.074;5.126;2024-02-15T10:56:42;9.48;;;3.45;;
20511;SDS011;10414;52.074;5.126;2024-02-15T10:59:16;9.68;;;4.00;;
20511;SDS011;10414;52.074;5.126;2024-02-15T11:01:45;10.35;;;3.90;;
20511;SDS011;10414;52.074;5.126;2024-02-15T11:04:14;9.15;;;4.30;;
20511;SDS011;10414;52.074;5.126;2024-02-15T11:06:42;11.35;;;4.18;;
20511;SDS011;10414;52.074;5.126;2024-02-15T11:09:10;10.80;;;4.88;;
20511;SDS011;10414;52.074;5.126;2024-02-15T11:11:39;9.35;;;5.28;;
20511;SDS011;10414;52.074;5.126;2024-02-15T11:16:54;15.80;;;4.88;;
20511;SDS011;10414;52.074;5.126;2024-02-15T11:19:41;13.77;;;4.68;;
20511;SDS011;10414;52.074;5.126;2024-02-15T11:22:12;10.02;;;5.10;;
20511;SDS011;10414;52.074;5.126;2024-02-15T11:24:47;13.48;;;5.03;;
20511;SDS011;10414;52.074;5.126;2024-02-15T11:27:24;12.60;;;5.20;;
20511;SDS011;10414;52.074;5.126;2024-02-15T11:29:54;11.65;;;5.43;;
20511;SDS011;10414;52.074;5.126;2024-02-15T11:35:15;10.43;;;5.15;;
20511;SDS011;10414;52.074;5.126;2024-02-15T11:37:56;11.02;;;4.47;;
20511;SDS011;10414;52.074;5.126;2024-02-15T11:43:47;12.15;;;5.60;;
20511;SDS011;10414;52.074;5.126;2024-02-15T11:46:21;12.27;;;5.68;;
20511;SDS011;10414;52.074;5.126;2024-02-15T11:48:50;10.88;;;5.28;;
20511;SDS011;10414;52.074;5.126;2024-02-15T11:51:24;12.90;;;6.32;;
20511;SDS011;10414;52.074;5.126;2024-02-15T11:53:59;11.32;;;5.65;;
20511;SDS011;10414;52.074;5.126;2024-02-15T11:56:30;10.02;;;5.47;;
20511;SDS011;10414;52.074;5.126;2024-02-15T11:59:02;10.57;;;5.25;;
20511;SDS011;10414;52.074;5.126;2024-02-15T12:01:33;10.27;;;5.38;;
20511;SDS011;10414;52.074;5.126;2024-02-15T12:04:18;11.02;;;5.70;;
20511;SDS011;10414;52.074;5.126;2024-02-15T12:07:03;11.82;;;5.25;;
20511;SDS011;10414;52.074;5.126;2024-02-15T12:09:47;12.38;;;5.10;;
20511;SDS011;10414;52.074;5.126;2024-02-15T12:12:32;9.32;;;4.82;;
20511;SDS011;10414;52.074;5.126;2024-02-15T12:15:16;11.77;;;5.10;;
20511;SDS011;10414;52.074;5.126;2024-02-15T12:18:14;9.85;;;4.53;;
20511;SDS011;10414;52.074;5.126;2024-02-15T12:20:59;10.90;;;4.65;;
20511;SDS011;10414;52.074;5.126;2024-02-15T12:23:27;10.00;;;4.50;;
20511;SDS011;10414;52.074;5.126;2024-02-15T12:25:55;11.05;;;4.63;;
20511;SDS011;10414;52.074;5.126;2024-02-15T12:28:23;8.00;;;4.88;;
20511;SDS011;10414;52.074;5.126;2024-02-15T12:30:54;9.30;;;4.20;;
20511;SDS011;10414;52.074;5.126;2024-02-15T12:33:23;10.10;;;4.35;;
20511;SDS011;10414;52.074;5.126;2024-02-15T12:35:52;9.45;;;4.72;;
20511;SDS011;10414;52.074;5.126;2024-02-15T12:38:31;7.75;;;3.85;;
20511;SDS011;10414;52.074;5.126;2024-02-15T12:40:59;9.05;;;3.83;;
20511;SDS011;10414;52.074;5.126;2024-02-15T12:43:27;8.23;;;3.30;;
20511;SDS011;10414;52.074;5.126;2024-02-15T12:45:54;8.35;;;4.35;;
20511;SDS011;10414;52.074;5.126;2024-02-15T12:48:22;9.98;;;3.47;;
20511;SDS011;10414;52.074;5.126;2024-02-15T12:50:51;6.28;;;3.22;;
20511;SDS011;10414;52.074;5.126;2024-02-15T12:53:22;7.90;;;3.00;;
20511;SDS011;10414;52.074;5.126;2024-02-15T12:55:52;9.68;;;2.63;;
20511;SDS011;10414;52.074;5.126;2024-02-15T12:58:21;5.05;;;2.50;;
20511;SDS011;10414;52.074;5.126;2024-02-15T13:00:49;6.35;;;2.30;;
20511;SDS011;10414;52.074;5.126;2024-02-15T13:03:20;5.05;;;2.50;;
20511;SDS011;10414;52.074;5.126;2024-02-15T13:05:48;7.85;;;2.63;;
20511;SDS011;10414;52.074;5.126;2024-02-15T13:08:16;9.82;;;2.55;;
20511;SDS011;10414;52.074;5.126;2024-02-15T13:10:44;8.77;;;2.42;;
20511;SDS011;10414;52.074;5.126;2024-02-15T13:13:11;8.48;;;2.50;;
20511;SDS011;10414;52.074;5.126;2024-02-15T13:15:39;6.97;;;2.53;;
20511;SDS011;10414;52.074;5.126;2024-02-15T13:18:06;4.93;;;1.92;;
20511;SDS011;10414;52.074;5.126;2024-02-15T13:20:35;6.05;;;2.25;;
20511;SDS011;10414;52.074;5.126;2024-02-15T13:23:04;8.38;;;2.35;;
20511;SDS011;10414;52.074;5.126;2024-02-15T13:25:34;6.55;;;1.98;;
20511;SDS011;10414;52.074;5.126;2024-02-15T13:28:02;8.10;;;2.10;;
20511;SDS011;10414;52.074;5.126;2024-02-15T13:30:30;7.90;;;2.05;;
20511;SDS011;10414;52.074;5.126;2024-02-15T13:32:57;6.28;;;2.33;;
20511;SDS011;10414;52.074;5.126;2024-02-15T13:35:24;6.03;;;2.00;;
20511;SDS011;10414;52.074;5.126;2024-02-15T13:37:52;6.75;;;2.10;;
20511;SDS011;10414;52.074;5.126;2024-02-15T13:40:21;6.15;;;1.95;;
20511;SDS011;10414;52.074;5.126;2024-02-15T13:42:49;6.95;;;1.95;;
20511;SDS011;10414;52.074;5.126;2024-02-15T13:45:19;7.30;;;1.90;;
20511;SDS011;10414;52.074;5.126;2024-02-15T13:47:48;6.25;;;2.13;;
20511;SDS011;10414;52.074;5.126;2024-02-15T13:50:15;5.85;;;2.00;;
20511;SDS011;10414;52.074;5.126;2024-02-15T13:52:43;7.72;;;2.00;;
20511;SDS011;10414;52.074;5.126;2024-02-15T13:55:11;6.75;;;2.08;;
20511;SDS011;10414;52.074;5.126;2024-02-15T13:57:40;8.15;;;2.20;;
20511;SDS011;10414;52.074;5.126;2024-02-15T14:00:08;8.05;;;2.60;;
20511;SDS011;10414;52.074;5.126;2024-02-15T14:02:40;4.03;;;1.70;;
20511;SDS011;10414;52.074;5.126;2024-02-15T14:05:08;5.10;;;1.58;;
20511;SDS011;10414;52.074;5.126;2024-02-15T14:07:36;5.55;;;2.00;;
20511;SDS011;10414;52.074;5.126;2024-02-15T14:10:04;5.53;;;2.00;;
20511;SDS011;10414;52.074;5.126;2024-02-15T14:12:32;7.43;;;1.85;;
20511;SDS011;10414;52.074;5.126;2024-02-15T14:15:00;5.65;;;1.70;;
20511;SDS011;10414;52.074;5.126;2024-02-15T14:17:28;4.53;;;1.88;;
20511;SDS011;10414;52.074;5.126;2024-02-15T14:19:55;6.03;;;1.73;;
20511;SDS011;10414;52.074;5.126;2024-02-15T14:22:22;6.00;;;1.83;;
20511;SDS011;10414;52.074;5.126;2024-02-15T14:24:53;5.93;;;1.80;;
20511;SDS011;10414;52.074;5.126;2024-02-15T14:27:20;7.13;;;2.17;;
20511;SDS011;10414;52.074;5.126;2024-02-15T14:29:47;6.78;;;2.00;;
20511;SDS011;10414;52.074;5.126;2024-02-15T14:32:29;6.68;;;1.90;;
20511;SDS011;10414;52.074;5.126;2024-02-15T14:35:14;4.72;;;1.80;;
20511;SDS011;10414;52.074;5.126;2024-02-15T14:37:42;5.43;;;1.73;;
20511;SDS011;10414;52.074;5.126;2024-02-15T14:40:09;5.25;;;1.90;;
20511;SDS011;10414;52.074;5.126;2024-02-15T14:42:39;6.00;;;1.92;;
20511;SDS011;10414;52.074;5.126;2024-02-15T14:45:07;5.57;;;1.77;;
20511;SDS011;10414;52.074;5.126;2024-02-15T14:47:36;6.97;;;1.85;;
20511;SDS011;10414;52.074;5.126;2024-02-15T14:50:03;7.25;;;2.00;;
20511;SDS011;10414;52.074;5.126;2024-02-15T14:52:33;6.95;;;1.98;;
20511;SDS011;10414;52.074;5.126;2024-02-15T14:55:00;4.93;;;2.00;;
20511;SDS011;10414;52.074;5.126;2024-02-15T14:57:30;6.18;;;2.00;;
20511;SDS011;10414;52.074;5.126;2024-02-15T14:59:57;6.10;;;2.00;;
20511;SDS011;10414;52.074;5.126;2024-02-15T15:02:24;7.57;;;1.88;;
20511;SDS011;10414;52.074;5.126;2024-02-15T15:04:52;5.07;;;1.85;;
20511;SDS011;10414;52.074;5.126;2024-02-15T15:07:38;4.05;;;1.80;;
20511;SDS011;10414;52.074;5.126;2024-02-15T15:10:23;4.88;;;1.70;;
20511;SDS011;10414;52.074;5.126;2024-02-15T15:13:07;5.47;;;1.65;;